ADDS METAR Data INFO
IDs: Format: Raw Decoded Include TAF

Data at: 1358 UTC 17 Dec 2017

PAKP 171356Z AUTO 03010KT 2 1/2SM -SN BR SCT023 SCT032 OVC090 M21/M23 A2943 RMK AO2 SLP044 P0000 T12061228 FZRANO
PAKP 171334Z AUTO 03010KT 2 1/2SM -SN BR FEW021 BKN025 OVC031 M21/M23 A2943 RMK AO2 P0000 FZRANO
PAKP 171306Z AUTO 04011KT 2SM -SN BR OVC030 M21/M23 A2943 RMK AO2 P0000 FZRANO
PAKP 171256Z AUTO 03011KT 1 1/4SM -SN BR BKN028 OVC034 M21/M23 A2943 RMK AO2 SLP043 P0000 T12061228 FZRANO
PAKP 171156Z AUTO 04012KT 1 1/2SM -SN BKN033 OVC041 M20/M23 A2941 RMK AO2 SLP036 P0000 60000 T12001228 11189 21200 53016 FZRANO
PAKP 171147Z AUTO 04012KT 1 1/2SM -SN BR BKN035 OVC041 M20/M22 A2941 RMK AO2 P0000 FZRANO
PAKP 171135Z AUTO 04012KT 2 1/2SM -SN BR BKN041 OVC090 M20/M22 A2940 RMK AO2 P0000 FZRANO
PAKP 171056Z AUTO 04011KT 5SM -SN BR OVC090 M20/M22 A2939 RMK AO2 SLP027 P0000 T12001222 FZRANO
PAKP 170956Z AUTO 05013KT 3SM -SN BR BKN041 OVC050 M20/M22 A2937 RMK AO2 SLP023 P0000 T12001222 FZRANO
PAKP 170944Z AUTO 05013KT 3SM -SN BR SCT036 OVC044 M20/M22 A2937 RMK AO2 P0000 FZRANO
PAKP 170856Z AUTO 05013KT 2 1/2SM -SN BR BKN039 OVC050 M19/M22 A2936 RMK AO2 SLP018 P0000 60000 T11941217 411441200 53022 FZRANO
PAKP 170825Z AUTO 05013KT 2SM -SN BR FEW007 BKN035 OVC050 M20/M22 A2935 RMK AO2 P0000 FZRANO
PAKP 170810Z AUTO 05014KT 2 1/2SM -SN BR SCT005 BKN028 OVC046 M20/M22 A2934 RMK AO2 P0000 FZRANO
PAKP 170756Z AUTO 05013KT 2SM -SN BR BKN003 OVC018 M20/M22 A2934 RMK AO2 CIG 003V008 SLP011 P0000 T12001222 FZRANO
PAKP 170744Z AUTO 05013KT 1 3/4SM -SN BR BKN003 BKN018 OVC100 M20/M22 A2933 RMK AO2 P0000 FZRANO
PAKP 170741Z AUTO 06012KT 2SM -SN BR SCT003 BKN018 OVC100 M20/M22 A2933 RMK AO2 P0000 FZRANO
PAKP 170656Z AUTO 05012KT 7SM -SN FEW045 OVC110 M19/M22 A2931 RMK AO2 SLP999 P0000 T11941217 FZRANO
PAKP 170556Z AUTO 05013KT 7SM -SN FEW026 OVC090 M19/M21 A2929 RMK AO2 SLP993 P0000 60000 T11891211 11178 21189 51009 FZRANO
PAKP 170456Z AUTO 05014KT 7SM -SN FEW028 BKN080 OVC100 M19/M21 A2929 RMK AO2 SLP992 P0000 T11891211 FZRANO
PAKP 170444Z AUTO 05013KT 6SM -SN BR SCT023 BKN030 OVC100 M19/M21 A2929 RMK AO2 P0000 FZRANO
PAKP 170426Z AUTO 04010KT 3SM -SN BR BKN023 BKN032 OVC041 M19/M21 A2928 RMK AO2 P0000 FZRANO
PAKP 170356Z AUTO 04011KT 5SM -SN BR BKN039 OVC049 M19/M21 A2928 RMK AO2 SLP989 P0000 T11891211 FZRANO
PAKP 170339Z AUTO 05012KT 3SM -SN BR SCT026 SCT043 OVC049 M18/M21 A2928 RMK AO2 P0000 FZRANO
PAKP 170315Z AUTO 05012KT 2SM -SN BR BKN026 OVC035 M18/M21 A2927 RMK AO2 P0000 FZRANO
PAKP 170256Z AUTO 05011KT 2 1/2SM -SN BR BKN035 BKN044 OVC060 M18/M20 A2926 RMK AO2 VIS 2V3 SLP980 P0000 60000 T11831200 53009 FZRANO
PAKP 170156Z AUTO 05013KT 4SM -SN BR FEW032 BKN100 M18/M21 A2925 RMK AO2 SLP976 P0000 T11831206 FZRANO
PAKP 170110Z AUTO 05015KT 3SM -SN BR FEW029 OVC034 M18/M20 A2925 RMK AO2 P0000 FZRANO
PAKP 170101Z AUTO 05015KT 2 1/2SM -SN BR SCT029 OVC034 M18/M20 A2924 RMK AO2 P0000 FZRANO
PAKP 170056Z AUTO 05015KT 3SM -SN BR OVC029 M18/M20 A2924 RMK AO2 SLP972 P0000 T11781200 FZRANO
PAKP 170028Z AUTO 04013KT 3SM -SN BR SCT032 SCT049 OVC055 M18/M20 A2924 RMK AO2 P0000 FZRANO
PAKP 170018Z AUTO 04012KT 2 1/2SM -SN BR FEW032 OVC055 M18/M20 A2924 RMK AO2 P0000 FZRANO
PAKP 162356Z AUTO 04012KT 1 1/2SM -SN BR BKN032 BKN041 OVC050 M18/M20 A2923 RMK AO2 SLP970 P0000 60000 T11781200 11172 21183 53004 FZRANO
PAKP 162317Z AUTO 04011KT 2 1/2SM -SN BR OVC060 M18/M20 A2923 RMK AO2 P0000 FZRANO
PAKP 162307Z AUTO 04013KT 1 3/4SM -SN BR FEW046 OVC060 M18/M20 A2923 RMK AO2 P0000 FZRANO
PAKP 162256Z AUTO 04013KT 2 1/2SM -SN BR FEW047 OVC060 M18/M20 A2923 RMK AO2 SLP968 P0000 T11781200 FZRANO
PAKP 162212Z AUTO 04010KT 5SM -SN BR FEW027 SCT031 OVC075 M18/M20 A2923 RMK AO2 P0000 FZRANO
PAKP 162156Z AUTO 04010KT 3SM -SN BR BKN027 OVC031 M18/M20 A2922 RMK AO2 SLP964 P0000 T11781200 FZRANO
PAKP 162152Z AUTO 04010KT 2 1/2SM -SN BR OVC027 M18/M20 A2922 RMK AO2 P0000 FZRANO
PAKP 162120Z AUTO 04009KT 1 1/4SM -SN BR OVC029 M18/M20 A2922 RMK AO2 P0000 FZRANO
PAKP 162113Z AUTO 04011KT 1SM -SN BR OVC029 M18/M20 A2922 RMK AO2 P0000 FZRANO
PAKP 162105Z AUTO 04012KT 1 1/4SM -SN BR BKN029 BKN036 OVC050 M18/M20 A2922 RMK AO2 P0000 FZRANO
PAKP 162056Z AUTO 04013KT 1 1/2SM -SN BR BKN031 BKN039 OVC050 M18/M19 A2922 RMK AO2 SLP964 P0000 60000 T11781194 53002 FZRANO
PAKP 162041Z AUTO 04012KT 2SM -SN BR SCT037 OVC050 M17/M19 A2922 RMK AO2 P0000 FZRANO
PAKP 162006Z AUTO 03012KT 1 3/4SM -SN BR OVC032 M17/M19 A2922 RMK AO2 P0000 FZRANO
PAKP 161956Z AUTO 04014KT 2SM -SN BR BKN030 OVC035 M17/M19 A2921 RMK AO2 SLP960 P0000 T11721194 FZRANO
PAKP 161953Z AUTO 03012KT 2SM -SN BR OVC030 M17/M19 A2921 RMK AO2 P0000 FZRANO
PAKP 161932Z AUTO 03012KT 1 1/4SM -SN BR SCT023 SCT027 OVC033 M18/M19 A2921 RMK AO2 P0000 FZRANO
PAKP 161925Z AUTO 04012KT 1 1/4SM -SN BR BKN021 OVC035 M18/M19 A2921 RMK AO2 P0000 FZRANO
PAKP 161917Z AUTO 04012KT 1 1/2SM -SN BR SCT026 OVC035 M17/M19 A2921 RMK AO2 P0000 FZRANO
PAKP 161906Z AUTO 03012KT 2SM -SN BR OVC037 M17/M19 A2921 RMK AO2 P0000 FZRANO
PAKP 161856Z AUTO 03013KT 3SM -SN BR BKN037 OVC048 M17/M19 A2921 RMK AO2 SLP960 P0000 T11721194 FZRANO
PAKP 161830Z AUTO 03013KT 4SM -SN BR FEW030 OVC047 M18/M19 A2922 RMK AO2 P0000 FZRANO
PAKP 161821Z AUTO 03012KT 2 1/2SM -SN BR FEW028 BKN044 OVC060 M18/M19 A2922 RMK AO2 P0000 FZRANO
PAKP 161756Z AUTO 03011KT 5SM -SN BR FEW025 SCT031 OVC065 M18/M19 A2922 RMK AO2 SLP961 P0000 60000 T11781194 11156 21178 56003 FZRANO
PAKP 161730Z AUTO 04010KT 3SM -SN BR FEW014 BKN027 OVC055 M17/M19 A2922 RMK AO2 P0000 FZRANO
PAKP 161722Z AUTO 05010KT 2SM -SN BR FEW014 BKN049 OVC055 M17/M19 A2922 RMK AO2 P0000 FZRANO
PAKP 161709Z AUTO 05010KT 2SM -SN BR FEW012 BKN017 OVC031 M17/M19 A2922 RMK AO2 P0000 FZRANO
PAKP 161656Z AUTO 04011KT 1 1/2SM -SN BR BKN022 OVC030 M17/M19 A2922 RMK AO2 SLP962 P0000 T11721189 FZRANO
PAKP 161638Z AUTO 04011KT 1 1/4SM -SN BR SCT011 OVC020 M17/M19 A2922 RMK AO2 P0000 FZRANO
PAKP 161622Z AUTO 04009KT 1 3/4SM -SN BR BKN011 OVC027 M17/M19 A2922 RMK AO2 P0000 FZRANO
PAKP 161556Z AUTO 04007KT 8SM -SN OVC011 M17/M19 A2922 RMK AO2 SLP962 P0000 T11671189 FZRANO
PAKP 161537Z AUTO 04009KT 7SM -SN BKN011 BKN050 OVC070 M17/M18 A2922 RMK AO2 P0000 FZRANO
PAKP 161456Z AUTO 04011KT 6SM -SN BR FEW011 BKN065 M17/M18 A2923 RMK AO2 SLP963 P0000 60000 T11671183 58009 FZRANO
PAKP 161447Z AUTO 04011KT 5SM -SN BR SCT009 BKN065 M16/M18 A2923 RMK AO2 P0000 FZRANO
PAKP 161412Z AUTO 04011KT 6SM -SN BR BKN007 OVC010 M16/M18 A2923 RMK AO2 CIG 005V008 P0000 FZRANO
PAKP 161356Z AUTO 05008KT 5SM -SN BR OVC005 M16/M18 A2924 RMK AO2 SLP966 P0000 T11611178 FZRANO
PAKP 161256Z AUTO 04010KT 6SM -SN BR OVC005 M16/M17 A2925 RMK AO2 SLP969 P0000 T11561172 FZRANO
PAKP 161156Z AUTO 05011KT 5SM -SN BR BKN005 OVC050 M16/M17 A2925 RMK AO2 SLP971 P0000 60000 T11561172 11139 21156 56011 FZRANO
PAKP 161153Z AUTO 05012KT 5SM -SN BR BKN005 OVC050 M16/M17 A2926 RMK AO2 P0000 FZRANO
PAKP 161056Z AUTO 04010KT 6SM -SN BR SCT007 OVC050 M15/M17 A2927 RMK AO2 SLP975 P0000 T11501167 FZRANO
PAKP 161031Z AUTO 04008KT 6SM -SN BR OVC005 M15/M17 A2927 RMK AO2 CIG 004V007 P0000 FZRANO
PAKP 161014Z AUTO 04009KT 4SM -SN BR BKN003 BKN010 OVC050 M15/M17 A2928 RMK AO2 P0000 FZRANO
PAKP 161004Z AUTO 03009KT 3SM -SN BR SCT003 SCT010 OVC050 M14/M16 A2929 RMK AO2 P0000 FZRANO
PAKP 161000Z AUTO 03008KT 2SM -SN BR SCT003 BKN010 OVC050 M14/M16 A2929 RMK AO2 P0000 FZRANO
PAKP 160947Z AUTO 03008KT 1 3/4SM -SN BR BKN003 OVC010 M14/M16 A2929 RMK AO2 P0000 FZRANO
PAKP 160856Z AUTO 04008KT 3SM -SN BR OVC003 M14/M16 A2931 RMK AO2 SLP989 P0000 60000 T11441161 411061144 58011 FZRANO
PAKP 160810Z AUTO 04008KT 3SM -SN BR OVC003 M14/M16 A2932 RMK AO2 P0000 FZRANO
PAKP 160756Z AUTO 05007KT 2SM -SN BR OVC003 M14/M16 A2933 RMK AO2 SLP996 P0000 T11441161 FZRANO
PAKP 160754Z AUTO 05008KT 2SM -SN BR OVC003 M14/M16 A2933 RMK AO2 P0000 FZRANO
PAKP 160746Z AUTO 04007KT 3SM -SN BR OVC003 M14/M16 A2933 RMK AO2 P0000 FZRANO
PAKP 160656Z AUTO 04007KT 6SM -SN BR OVC005 M14/M16 A2934 RMK AO2 SLP000 P0000 T11391156 FZRANO
PAKP 160556Z AUTO 04005KT 4SM -SN BR OVC005 M14/M16 A2936 RMK AO2 SLP006 P0000 60000 T11391156 11128 21144 58013 FZRANO
PAKP 160535Z AUTO 03007KT 4SM -SN BR OVC005 M14/M16 A2937 RMK AO2 P0000 FZRANO
PAKP 160505Z AUTO 04006KT 3SM -SN BR BKN007 OVC050 M14/M16 A2938 RMK AO2 P0000 FZRANO
PAKP 160456Z AUTO 04006KT 2 1/2SM -SN BR SCT007 OVC050 M14/M16 A2938 RMK AO2 VIS 1 3/4V3 SLP012 P0000 T11391156 FZRANO
PAKP 160442Z AUTO 04008KT 2SM -SN BR BKN007 OVC050 M13/M15 A2938 RMK AO2 CIG 005V008 P0000 FZRANO
PAKP 160434Z AUTO 03007KT 2SM -SN BR BKN005 OVC050 M13/M15 A2938 RMK AO2 VIS 1 1/2V3 CIG 003V008 P0000 FZRANO
PAKP 160356Z AUTO 04008KT 2 1/2SM -SN BR OVC003 M13/M15 A2939 RMK AO2 SLP016 P0000 T11331150 FZRANO
PAKP 160328Z AUTO 03008KT 2 1/2SM -SN BR OVC003 M13/M15 A2939 RMK AO2 P0000 FZRANO
PAKP 160308Z AUTO 04007KT 1 1/2SM -SN BR OVC003 M13/M15 A2940 RMK AO2 P0000 FZRANO
PAKP 160256Z AUTO 04007KT 1SM -SN BR OVC003 M13/M15 A2940 RMK AO2 SLP020 P0000 60000 T11331150 56018 FZRANO